< < Back
Terminal Aerodrome Forecast


Current Version              Previous Versions:   1  2  3  4  5  6  7  8  9  

Terminal Aerodrome Forecast

325
FTUS44 KMOB 160500
TAFPNS
TAF
KPNS 160522Z 1606/1706 35009KT P6SM FEW250
     FM160800 03008KT P6SM SKC
     FM161500 08009KT P6SM FEW250
     FM162100 12009KT P6SM FEW250=



Latest METAR

512
SAUS70 KWBC 162200 RRJ
MTRPNS
METAR KPNS 162153Z 16008KT 10SM CLR 19/04 A3012 RMK AO2 SLP203
T01890039


USA.gov is the U.S. government's official web portal to all federal, state and local government web resources and services.